CheckWX is a tool to help pilots better visualize weather data.  It is not intended as a substitute for an official pre-flight weather briefing.

01:55:44 UTC

KVAD TAF
Moody AFB Airport
Valdosta, Georgia, USA
TAF KVAD 190000Z 1900/2006 30006KT 9999 FEW210 QNH3010INS BECMG 1907/1908 03009KT 9999 BKN210 QNH3025INS BECMG 1914/1915 05012G18KT 9999 SCT180 QNH3019INS BECMG 1921/1922 05006KT 9999 SCT040 QNH3025INS TX18/1920Z TN07/2000Z

Mar-19@
00:00 UTC

Mar-19 @ 00:00 UTC

Mar-19@
07:00 UTC

Mar-19 @ 07:00 UTC

TAF KVAD 190000Z 1900/2006 30006KT 9999 FEW210 QNH3010INS
Wind
  • 300° at 6 KTS
Cloud Levels
  • Few at 21,000' AGL

Mar-19@
07:00 UTC

Mar-19 @ 07:00 UTC

Mar-19@
14:00 UTC

Mar-19 @ 14:00 UTC

BECMG 1907/1908 03009KT 9999 BKN210 QNH3025INS

Becoming

Becoming Conditions expected by Tue, Mar 19, 2019 @ 08:00 UTC

Wind
  • 030° at 9 KTS
Cloud Levels
  • Broken at 21,000' AGL

Mar-19@
14:00 UTC

Mar-19 @ 14:00 UTC

Mar-19@
21:00 UTC

Mar-19 @ 21:00 UTC

BECMG 1914/1915 05012G18KT 9999 SCT180 QNH3019INS

Becoming

Becoming Conditions expected by Tue, Mar 19, 2019 @ 15:00 UTC

Wind
  • 050° at 12 KTS
  • {Gusting to 18 KTS
Cloud Levels
  • Scattered at 18,000' AGL

Mar-19@
21:00 UTC

Mar-19 @ 21:00 UTC

Mar-20@
06:00 UTC

Mar-20 @ 06:00 UTC

BECMG 1921/1922 05006KT 9999 SCT040 QNH3025INS TX18/1920Z TN07/2000Z

Becoming

Becoming Conditions expected by Tue, Mar 19, 2019 @ 22:00 UTC

Wind
  • 050° at 6 KTS
Cloud Levels
  • Scattered at 4,000' AGL